Decoded Metar for KDVP (SLAYTON in MN, USA) (IATA:DVP) | Meteo·Mobile Aviation Weather
aviador You're here:

KDVP Decoded Metar

SLAYTON in MN, USA
Report Time2019-04-25 00:59:00
UTC Time2019-04-25 01:04:05
Flight Rules vfr VFR
Wind230° at 06 kt
W.Decomp.*RWY 17: 3.4 kt HW 5.0 kt RCW
Visibility9999 m
Phenomena:N/A
Clouds:Broken 110 Hf
Expected CloudBase > 3,600 ft AGL from Temp-Dew spread
Ceiling11,000 ft
Temp19°C (ISA +7)
Dew Point10°C (56% RH)
AAT16.9°C
QNH1006 hPa
Density Alt2,874 ft
Elevation1,624 ft
Report Wrong Elevation
Raw Report
KDVP 250059Z AUTO 23006KT 10SM BKN110 19/10 A2972 RMK AO2
T01930101=

Extra information for KDVP:More info

Metar Taf Metar & Taf Last 4 Metars F.Rules Stats Wind Profile Meteogram Temp Stats Airport Information Weather charts Add Link Nearby VenuesMetar ALERT Operation Metar Decoded Social comments

AIRNAV info for KDVP